sensor_id;sensor_type;location;lat;lon;timestamp;pressure;altitude;pressure_sealevel;temperature;humidity
51585;BME280;37669;50.312;18.670;2022-10-26T05:35:34;49246.69;;;-145.86;100.00
51585;BME280;37669;50.312;18.670;2022-10-26T05:38:06;49238.75;;;-145.86;100.00
51585;BME280;37669;50.312;18.670;2022-10-26T05:40:33;49215.00;;;-145.86;100.00
51585;BME280;37669;50.312;18.670;2022-10-26T05:43:00;49254.59;;;-145.86;100.00
51585;BME280;37669;50.312;18.670;2022-10-26T05:45:28;49224.91;;;-145.86;100.00
51585;BME280;37669;50.312;18.670;2022-10-26T05:47:55;49242.72;;;-145.86;100.00
51585;BME280;37669;50.312;18.670;2022-10-26T05:50:22;49260.53;;;-145.86;100.00
51585;BME280;37669;50.312;18.670;2022-10-26T05:52:50;49272.41;;;-145.86;100.00
51585;BME280;37669;50.312;18.670;2022-10-26T05:55:18;49260.53;;;-145.86;100.00
51585;BME280;37669;50.312;18.670;2022-10-26T05:57:46;49258.56;;;-145.86;100.00
51585;BME280;37669;50.312;18.670;2022-10-26T06:00:17;49232.81;;;-145.86;100.00
51585;BME280;37669;50.312;18.670;2022-10-26T06:02:56;49222.91;;;-145.86;100.00
51585;BME280;37669;50.312;18.670;2022-10-26T06:05:28;49254.59;;;-145.86;100.00
51585;BME280;37669;50.312;18.670;2022-10-26T06:07:59;49262.53;;;-145.86;100.00
51585;BME280;37669;50.312;18.670;2022-10-26T06:10:26;49262.53;;;-145.86;100.00
51585;BME280;37669;50.312;18.670;2022-10-26T06:12:54;49254.59;;;-145.86;100.00
51585;BME280;37669;50.312;18.670;2022-10-26T06:15:22;49232.81;;;-145.86;100.00
51585;BME280;37669;50.312;18.670;2022-10-26T06:17:57;49238.75;;;-145.86;100.00
51585;BME280;37669;50.312;18.670;2022-10-26T06:20:41;49278.38;;;-145.86;100.00
51585;BME280;37669;50.312;18.670;2022-10-26T06:23:36;49238.75;;;-145.86;100.00
51585;BME280;37669;50.312;18.670;2022-10-26T06:26:11;49258.56;;;-145.86;100.00
51585;BME280;37669;50.312;18.670;2022-10-26T06:28:44;49256.56;;;-145.86;100.00
51585;BME280;37669;50.312;18.670;2022-10-26T06:31:16;49242.72;;;-145.86;100.00
51585;BME280;37669;50.312;18.670;2022-10-26T06:33:44;49268.47;;;-145.86;100.00
51585;BME280;37669;50.312;18.670;2022-10-26T06:36:19;49242.72;;;-145.86;100.00
51585;BME280;37669;50.312;18.670;2022-10-26T06:38:51;49286.28;;;-145.86;100.00
51585;BME280;37669;50.312;18.670;2022-10-26T06:41:20;49274.41;;;-145.86;100.00
51585;BME280;37669;50.312;18.670;2022-10-26T06:43:48;49286.28;;;-145.86;100.00
51585;BME280;37669;50.312;18.670;2022-10-26T06:46:25;49270.44;;;-145.86;100.00
51585;BME280;37669;50.312;18.670;2022-10-26T06:48:59;49282.31;;;-145.86;100.00
51585;BME280;37669;50.312;18.670;2022-10-26T06:51:30;49302.13;;;-145.86;100.00
51585;BME280;37669;50.312;18.670;2022-10-26T06:54:04;49294.19;;;-145.86;100.00
51585;BME280;37669;50.312;18.670;2022-10-26T06:56:33;49272.41;;;-145.86;100.00
51585;BME280;37669;50.312;18.670;2022-10-26T06:59:07;49292.22;;;-145.86;100.00
51585;BME280;37669;50.312;18.670;2022-10-26T07:01:34;49266.47;;;-145.86;100.00
51585;BME280;37669;50.312;18.670;2022-10-26T07:04:01;49314.00;;;-145.86;100.00
51585;BME280;37669;50.312;18.670;2022-10-26T07:06:29;49258.56;;;-145.86;100.00
51585;BME280;37669;50.312;18.670;2022-10-26T07:08:55;49325.88;;;-145.86;100.00
51585;BME280;37669;50.312;18.670;2022-10-26T07:11:24;49317.97;;;-145.86;100.00
51585;BME280;37669;50.312;18.670;2022-10-26T07:13:51;49308.06;;;-145.86;100.00
51585;BME280;37669;50.312;18.670;2022-10-26T07:16:18;49270.44;;;-145.86;100.00
51585;BME280;37669;50.312;18.670;2022-10-26T07:18:45;49319.94;;;-145.86;100.00
51585;BME280;37669;50.312;18.670;2022-10-26T07:21:12;49317.97;;;-145.86;100.00
51585;BME280;37669;50.312;18.670;2022-10-26T07:23:39;49314.00;;;-145.86;100.00
51585;BME280;37669;50.312;18.670;2022-10-26T07:26:06;49329.84;;;-145.86;100.00
51585;BME280;37669;50.312;18.670;2022-10-26T07:28:35;49341.72;;;-145.86;100.00
51585;BME280;37669;50.312;18.670;2022-10-26T07:31:02;49333.81;;;-145.86;100.00
51585;BME280;37669;50.312;18.670;2022-10-26T07:33:30;49345.69;;;-145.86;100.00
51585;BME280;37669;50.312;18.670;2022-10-26T07:35:57;49347.66;;;-145.86;100.00
51585;BME280;37669;50.312;18.670;2022-10-26T07:40:52;49343.72;;;-145.86;98.05
51585;BME280;37669;50.312;18.670;2022-10-26T07:43:20;49381.34;;;-145.86;97.48
51585;BME280;37669;50.312;18.670;2022-10-26T07:45:49;49365.50;;;-145.86;95.87
51585;BME280;37669;50.312;18.670;2022-10-26T07:48:17;49357.56;;;-145.86;95.79
51585;BME280;37669;50.312;18.670;2022-10-26T07:50:44;49365.50;;;-145.86;95.68
51585;BME280;37669;50.312;18.670;2022-10-26T07:53:11;49401.13;;;-145.86;94.88
51585;BME280;37669;50.312;18.670;2022-10-26T07:55:38;49375.41;;;-145.86;94.88
51585;BME280;37669;50.312;18.670;2022-10-26T07:58:05;49424.91;;;-145.86;94.46
51585;BME280;37669;50.312;18.670;2022-10-26T08:00:32;49345.69;;;-145.86;95.02
51585;BME280;37669;50.312;18.670;2022-10-26T08:03:01;49393.22;;;-145.86;94.77
51585;BME280;37669;50.312;18.670;2022-10-26T08:05:28;49393.22;;;-145.86;94.31
51585;BME280;37669;50.312;18.670;2022-10-26T08:07:55;49381.34;;;-145.86;93.77
51585;BME280;37669;50.312;18.670;2022-10-26T08:10:22;49371.44;;;-145.86;93.83
51585;BME280;37669;50.312;18.670;2022-10-26T08:12:51;49375.41;;;-145.86;93.89
51585;BME280;37669;50.312;18.670;2022-10-26T08:15:18;49385.28;;;-145.86;94.03
51585;BME280;37669;50.312;18.670;2022-10-26T08:17:46;49416.97;;;-145.86;94.51
51585;BME280;37669;50.312;18.670;2022-10-26T08:20:14;49389.25;;;-145.86;92.22
51585;BME280;37669;50.312;18.670;2022-10-26T08:22:41;49436.78;;;-145.86;90.11
51585;BME280;37669;50.312;18.670;2022-10-26T08:25:08;49436.78;;;-145.86;90.25
51585;BME280;37669;50.312;18.670;2022-10-26T08:27:35;49385.28;;;-145.86;90.50
51585;BME280;37669;50.312;18.670;2022-10-26T08:30:03;49389.25;;;-145.86;87.95
51585;BME280;37669;50.312;18.670;2022-10-26T08:32:31;49391.25;;;-145.86;86.80
51585;BME280;37669;50.312;18.670;2022-10-26T09:01:14;49430.84;;;-145.86;87.13
51585;BME280;37669;50.312;18.670;2022-10-26T09:03:41;49391.25;;;-145.86;86.95
51585;BME280;37669;50.312;18.670;2022-10-26T09:06:24;49430.84;;;-145.86;86.90
51585;BME280;37669;50.312;18.670;2022-10-26T09:09:02;49416.97;;;-145.86;84.89
51585;BME280;37669;50.312;18.670;2022-10-26T09:11:54;49458.56;;;-145.86;84.81
51585;BME280;37669;50.312;18.670;2022-10-26T09:14:34;49444.72;;;-145.86;83.77
51585;BME280;37669;50.312;18.670;2022-10-26T09:17:11;49448.66;;;-145.86;84.85
51585;BME280;37669;50.312;18.670;2022-10-26T09:20:00;49416.97;;;-145.86;84.86
51585;BME280;37669;50.312;18.670;2022-10-26T09:22:32;49420.94;;;-145.86;83.78
51585;BME280;37669;50.312;18.670;2022-10-26T09:25:07;49436.78;;;-145.86;83.80
51585;BME280;37669;50.312;18.670;2022-10-26T09:27:41;49442.72;;;-145.86;81.51
51585;BME280;37669;50.312;18.670;2022-10-26T09:30:13;49430.84;;;-145.86;82.98
51585;BME280;37669;50.312;18.670;2022-10-26T09:32:45;49440.75;;;-145.86;83.08
51585;BME280;37669;50.312;18.670;2022-10-26T09:35:15;49452.63;;;-145.86;81.76
51585;BME280;37669;50.312;18.670;2022-10-26T09:37:47;49454.59;;;-145.86;83.25
51585;BME280;37669;50.312;18.670;2022-10-26T09:40:20;49436.78;;;-145.86;81.88
51585;BME280;37669;50.312;18.670;2022-10-26T09:42:54;49450.66;;;-145.86;79.52
51585;BME280;37669;50.312;18.670;2022-10-26T09:45:27;49432.81;;;-145.86;80.83
51585;BME280;37669;50.312;18.670;2022-10-26T09:47:59;49432.81;;;-145.86;78.35
51585;BME280;37669;50.312;18.670;2022-10-26T09:50:32;49444.72;;;-145.86;79.25
51585;BME280;37669;50.312;18.670;2022-10-26T09:53:01;49466.50;;;-145.86;78.78
51585;BME280;37669;50.312;18.670;2022-10-26T09:55:29;49456.59;;;-145.86;79.59
51585;BME280;37669;50.312;18.670;2022-10-26T09:58:00;49466.50;;;-145.86;76.51
51585;BME280;37669;50.312;18.670;2022-10-26T10:00:28;49428.88;;;-145.86;75.64
51585;BME280;37669;50.312;18.670;2022-10-26T10:02:57;49456.59;;;-145.86;76.12
51585;BME280;37669;50.312;18.670;2022-10-26T10:05:29;49454.59;;;-145.86;75.63
51585;BME280;37669;50.312;18.670;2022-10-26T10:08:13;49456.59;;;-145.86;74.94
51585;BME280;37669;50.312;18.670;2022-10-26T10:10:53;49474.41;;;-145.86;73.62
51585;BME280;37669;50.312;18.670;2022-10-26T10:13:22;49452.63;;;-145.86;75.44
51585;BME280;37669;50.312;18.670;2022-10-26T10:15:52;49456.59;;;-145.86;74.28
51585;BME280;37669;50.312;18.670;2022-10-26T10:18:22;49468.47;;;-145.86;72.73
51585;BME280;37669;50.312;18.670;2022-10-26T10:20:51;49452.63;;;-145.86;73.48
51585;BME280;37669;50.312;18.670;2022-10-26T10:23:29;49454.59;;;-145.86;71.98
51585;BME280;37669;50.312;18.670;2022-10-26T10:26:02;49494.22;;;-145.86;72.54
51585;BME280;37669;50.312;18.670;2022-10-26T10:28:29;49448.66;;;-145.86;71.08
51585;BME280;37669;50.312;18.670;2022-10-26T10:30:59;49464.50;;;-145.86;71.03
51585;BME280;37669;50.312;18.670;2022-10-26T10:33:39;49430.84;;;-145.86;71.89
51585;BME280;37669;50.312;18.670;2022-10-26T10:36:09;49450.66;;;-145.86;69.61
51585;BME280;37669;50.312;18.670;2022-10-26T10:38:40;49488.28;;;-145.86;67.77
51585;BME280;37669;50.312;18.670;2022-10-26T10:41:15;49454.59;;;-145.86;68.97
51585;BME280;37669;50.312;18.670;2022-10-26T10:43:48;49488.28;;;-145.86;70.16
51585;BME280;37669;50.312;18.670;2022-10-26T10:46:20;49478.38;;;-145.86;69.93
51585;BME280;37669;50.312;18.670;2022-10-26T10:48:52;49462.53;;;-145.86;69.33
51585;BME280;37669;50.312;18.670;2022-10-26T10:51:23;49476.41;;;-145.86;67.14
51585;BME280;37669;50.312;18.670;2022-10-26T10:53:52;49476.41;;;-145.86;68.50
51585;BME280;37669;50.312;18.670;2022-10-26T10:56:36;49480.34;;;-145.86;67.82
51585;BME280;37669;50.312;18.670;2022-10-26T10:59:20;49519.97;;;-145.86;66.83
51585;BME280;37669;50.312;18.670;2022-10-26T11:02:01;49488.28;;;-145.86;65.95
51585;BME280;37669;50.312;18.670;2022-10-26T11:04:57;49448.66;;;-145.86;67.19
51585;BME280;37669;50.312;18.670;2022-10-26T11:07:29;49472.44;;;-145.86;66.68
51585;BME280;37669;50.312;18.670;2022-10-26T11:10:00;49450.66;;;-145.86;66.70
51585;BME280;37669;50.312;18.670;2022-10-26T11:12:31;49444.72;;;-145.86;64.90
51585;BME280;37669;50.312;18.670;2022-10-26T11:15:04;49496.19;;;-145.86;64.51
51585;BME280;37669;50.312;18.670;2022-10-26T11:17:41;49474.41;;;-145.86;64.71
51585;BME280;37669;50.312;18.670;2022-10-26T11:20:14;49460.56;;;-145.86;64.65
51585;BME280;37669;50.312;18.670;2022-10-26T11:23:00;49472.44;;;-145.86;65.77
51585;BME280;37669;50.312;18.670;2022-10-26T11:25:32;49466.50;;;-145.86;65.25
51585;BME280;37669;50.312;18.670;2022-10-26T11:28:03;49464.50;;;-145.86;62.89
51585;BME280;37669;50.312;18.670;2022-10-26T11:30:33;49466.50;;;-145.86;63.90
51585;BME280;37669;50.312;18.670;2022-10-26T11:33:06;49484.31;;;-145.86;63.60
51585;BME280;37669;50.312;18.670;2022-10-26T11:35:43;49470.44;;;-145.86;64.29
51585;BME280;37669;50.312;18.670;2022-10-26T11:38:15;49446.69;;;-145.86;63.48
51585;BME280;37669;50.312;18.670;2022-10-26T11:40:49;49472.44;;;-145.86;62.52
51585;BME280;37669;50.312;18.670;2022-10-26T11:43:23;49512.03;;;-145.86;62.68
51585;BME280;37669;50.312;18.670;2022-10-26T11:46:02;49476.41;;;-145.86;61.92
51585;BME280;37669;50.312;18.670;2022-10-26T11:48:34;49484.31;;;-145.86;62.84
51585;BME280;37669;50.312;18.670;2022-10-26T11:51:07;49456.59;;;-145.86;62.38
51585;BME280;37669;50.312;18.670;2022-10-26T11:53:41;49476.41;;;-145.86;63.37
51585;BME280;37669;50.312;18.670;2022-10-26T11:56:12;49508.06;;;-145.86;61.82
51585;BME280;37669;50.312;18.670;2022-10-26T11:58:44;49468.47;;;-145.86;60.71
51585;BME280;37669;50.312;18.670;2022-10-26T12:01:14;49468.47;;;-145.86;60.49
51585;BME280;37669;50.312;18.670;2022-10-26T12:03:44;49468.47;;;-145.86;60.52
51585;BME280;37669;50.312;18.670;2022-10-26T12:06:17;49476.41;;;-145.86;61.24
51585;BME280;37669;50.312;18.670;2022-10-26T12:08:52;49486.28;;;-145.86;60.29
51585;BME280;37669;50.312;18.670;2022-10-26T12:11:34;49454.59;;;-145.86;61.41
51585;BME280;37669;50.312;18.670;2022-10-26T12:14:10;49470.44;;;-145.86;58.94
51585;BME280;37669;50.312;18.670;2022-10-26T12:16:47;49500.16;;;-145.86;59.60
51585;BME280;37669;50.312;18.670;2022-10-26T12:19:23;49454.59;;;-145.86;60.08
51585;BME280;37669;50.312;18.670;2022-10-26T12:21:54;49472.44;;;-145.86;58.42
51585;BME280;37669;50.312;18.670;2022-10-26T12:24:26;49478.38;;;-145.86;60.23
51585;BME280;37669;50.312;18.670;2022-10-26T12:26:54;49478.38;;;-145.86;56.69
51585;BME280;37669;50.312;18.670;2022-10-26T12:29:30;49456.59;;;-145.86;57.21
51585;BME280;37669;50.312;18.670;2022-10-26T12:31:59;49472.44;;;-145.86;56.88
51585;BME280;37669;50.312;18.670;2022-10-26T12:34:57;49508.06;;;-145.86;56.94
51585;BME280;37669;50.312;18.670;2022-10-26T12:37:31;49468.47;;;-145.86;56.07
51585;BME280;37669;50.312;18.670;2022-10-26T12:43:34;49468.47;;;-145.86;58.03
51585;BME280;37669;50.312;18.670;2022-10-26T12:52:45;49460.56;;;-145.86;56.28
51585;BME280;37669;50.312;18.670;2022-10-26T12:56:00;49464.50;;;-145.86;57.78
51585;BME280;37669;50.312;18.670;2022-10-26T12:59:02;49462.53;;;-145.86;56.69
51585;BME280;37669;50.312;18.670;2022-10-26T13:01:52;49458.56;;;-145.86;56.51
51585;BME280;37669;50.312;18.670;2022-10-26T13:04:50;49468.47;;;-145.86;55.41
51585;BME280;37669;50.312;18.670;2022-10-26T13:07:25;49480.34;;;-145.86;54.81
51585;BME280;37669;50.312;18.670;2022-10-26T13:09:57;49476.41;;;-145.86;55.50
51585;BME280;37669;50.312;18.670;2022-10-26T13:12:27;49472.44;;;-145.86;55.50
51585;BME280;37669;50.312;18.670;2022-10-26T13:14:59;49508.06;;;-145.86;56.78
51585;BME280;37669;50.312;18.670;2022-10-26T13:17:29;49472.44;;;-145.86;56.47
51585;BME280;37669;50.312;18.670;2022-10-26T13:19:59;49468.47;;;-145.86;57.64
51585;BME280;37669;50.312;18.670;2022-10-26T13:22:27;49452.63;;;-145.86;56.82
51585;BME280;37669;50.312;18.670;2022-10-26T13:24:58;49444.72;;;-145.86;56.18
51585;BME280;37669;50.312;18.670;2022-10-26T13:27:43;49413.03;;;-145.86;56.21
51585;BME280;37669;50.312;18.670;2022-10-26T13:30:21;49464.50;;;-145.86;55.39
51585;BME280;37669;50.312;18.670;2022-10-26T13:33:07;49436.78;;;-145.86;55.40
51585;BME280;37669;50.312;18.670;2022-10-26T13:35:39;49428.88;;;-145.86;56.02
51585;BME280;37669;50.312;18.670;2022-10-26T13:38:10;49466.50;;;-145.86;56.55
51585;BME280;37669;50.312;18.670;2022-10-26T13:40:40;49460.56;;;-145.86;56.04
51585;BME280;37669;50.312;18.670;2022-10-26T13:43:14;49434.81;;;-145.86;55.94
51585;BME280;37669;50.312;18.670;2022-10-26T13:45:50;49448.66;;;-145.86;56.38
51585;BME280;37669;50.312;18.670;2022-10-26T13:48:27;49480.34;;;-145.86;57.27
51585;BME280;37669;50.312;18.670;2022-10-26T13:50:58;49468.47;;;-145.86;57.24
51585;BME280;37669;50.312;18.670;2022-10-26T13:53:35;49444.72;;;-145.86;58.24
51585;BME280;37669;50.312;18.670;2022-10-26T13:56:10;49434.81;;;-145.86;57.47
51585;BME280;37669;50.312;18.670;2022-10-26T13:58:41;49456.59;;;-145.86;57.61
51585;BME280;37669;50.312;18.670;2022-10-26T14:01:14;49456.59;;;-145.86;57.15
51585;BME280;37669;50.312;18.670;2022-10-26T14:03:43;49480.34;;;-145.86;56.21
51585;BME280;37669;50.312;18.670;2022-10-26T14:06:15;49496.19;;;-145.86;55.99
51585;BME280;37669;50.312;18.670;2022-10-26T14:08:43;49436.78;;;-145.86;56.91
51585;BME280;37669;50.312;18.670;2022-10-26T14:11:18;49436.78;;;-145.86;56.21
51585;BME280;37669;50.312;18.670;2022-10-26T14:13:48;49434.81;;;-145.86;57.65
51585;BME280;37669;50.312;18.670;2022-10-26T14:16:17;49444.72;;;-145.86;58.15
51585;BME280;37669;50.312;18.670;2022-10-26T14:18:45;49458.56;;;-145.86;56.12
51585;BME280;37669;50.312;18.670;2022-10-26T14:21:14;49444.72;;;-145.86;56.21
51585;BME280;37669;50.312;18.670;2022-10-26T14:23:47;49476.41;;;-145.86;56.57
51585;BME280;37669;50.312;18.670;2022-10-26T14:26:24;49438.78;;;-145.86;57.56
51585;BME280;37669;50.312;18.670;2022-10-26T14:28:53;49446.69;;;-145.86;58.43
51585;BME280;37669;50.312;18.670;2022-10-26T14:31:26;49436.78;;;-145.86;59.49
51585;BME280;37669;50.312;18.670;2022-10-26T14:33:55;49448.66;;;-145.86;59.44
51585;BME280;37669;50.312;18.670;2022-10-26T14:36:25;49418.97;;;-145.86;60.52
51585;BME280;37669;50.312;18.670;2022-10-26T14:38:58;49426.88;;;-145.86;62.17
51585;BME280;37669;50.312;18.670;2022-10-26T14:41:29;49460.56;;;-145.86;62.47
51585;BME280;37669;50.312;18.670;2022-10-26T14:43:58;49444.72;;;-145.86;62.57
51585;BME280;37669;50.312;18.670;2022-10-26T14:46:28;49428.88;;;-145.86;62.47
51585;BME280;37669;50.312;18.670;2022-10-26T14:49:00;49434.81;;;-145.86;63.09
51585;BME280;37669;50.312;18.670;2022-10-26T14:51:28;49432.81;;;-145.86;63.29
51585;BME280;37669;50.312;18.670;2022-10-26T14:53:57;49446.69;;;-145.86;63.63
51585;BME280;37669;50.312;18.670;2022-10-26T14:56:30;49428.88;;;-145.86;64.72
51585;BME280;37669;50.312;18.670;2022-10-26T14:58:57;49411.03;;;-145.86;66.37
51585;BME280;37669;50.312;18.670;2022-10-26T15:01:31;49434.81;;;-145.86;65.97
51585;BME280;37669;50.312;18.670;2022-10-26T15:04:00;49426.88;;;-145.86;66.29
51585;BME280;37669;50.312;18.670;2022-10-26T15:09:29;49416.97;;;-145.86;68.71
51585;BME280;37669;50.312;18.670;2022-10-26T15:11:58;49430.84;;;-145.86;69.88
51585;BME280;37669;50.312;18.670;2022-10-26T15:14:27;49411.03;;;-145.86;69.50
51585;BME280;37669;50.312;18.670;2022-10-26T15:16:56;49405.09;;;-145.86;71.14
51585;BME280;37669;50.312;18.670;2022-10-26T15:19:24;49397.19;;;-145.86;70.15
51585;BME280;37669;50.312;18.670;2022-10-26T15:21:52;49409.06;;;-145.86;71.91
51585;BME280;37669;50.312;18.670;2022-10-26T15:24:29;49422.94;;;-145.86;72.35
51585;BME280;37669;50.312;18.670;2022-10-26T15:26:59;49385.28;;;-145.86;73.61
51585;BME280;37669;50.312;18.670;2022-10-26T15:29:39;49391.25;;;-145.86;73.58
51585;BME280;37669;50.312;18.670;2022-10-26T15:32:27;49409.06;;;-145.86;74.73
51585;BME280;37669;50.312;18.670;2022-10-26T15:35:14;49393.22;;;-145.86;75.49
51585;BME280;37669;50.312;18.670;2022-10-26T15:37:47;49365.50;;;-145.86;76.75
51585;BME280;37669;50.312;18.670;2022-10-26T15:40:15;49365.50;;;-145.86;76.96
51585;BME280;37669;50.312;18.670;2022-10-26T15:42:46;49371.44;;;-145.86;77.29
51585;BME280;37669;50.312;18.670;2022-10-26T15:45:16;49405.09;;;-145.86;77.87
51585;BME280;37669;50.312;18.670;2022-10-26T15:47:44;49371.44;;;-145.86;78.57
51585;BME280;37669;50.312;18.670;2022-10-26T15:50:13;49391.25;;;-145.86;78.85
51585;BME280;37669;50.312;18.670;2022-10-26T15:52:42;49418.97;;;-145.86;79.83
51585;BME280;37669;50.312;18.670;2022-10-26T15:55:09;49357.56;;;-145.86;81.40
51585;BME280;37669;50.312;18.670;2022-10-26T15:57:36;49385.28;;;-145.86;81.65
51585;BME280;37669;50.312;18.670;2022-10-26T16:00:09;49367.47;;;-145.86;81.51
51585;BME280;37669;50.312;18.670;2022-10-26T16:02:41;49349.66;;;-145.86;81.47
51585;BME280;37669;50.312;18.670;2022-10-26T16:05:10;49365.50;;;-145.86;82.35
51585;BME280;37669;50.312;18.670;2022-10-26T16:07:39;49397.19;;;-145.86;84.12
51585;BME280;37669;50.312;18.670;2022-10-26T16:10:12;49401.13;;;-145.86;83.74
51585;BME280;37669;50.312;18.670;2022-10-26T16:12:40;49369.47;;;-145.86;84.06
51585;BME280;37669;50.312;18.670;2022-10-26T16:15:15;49385.28;;;-145.86;84.78
51585;BME280;37669;50.312;18.670;2022-10-26T16:17:43;49341.72;;;-145.86;84.86
51585;BME280;37669;50.312;18.670;2022-10-26T16:20:13;49357.56;;;-145.86;85.17
51585;BME280;37669;50.312;18.670;2022-10-26T16:22:41;49361.53;;;-145.86;85.01
51585;BME280;37669;50.312;18.670;2022-10-26T16:25:16;49357.56;;;-145.86;84.70
51585;BME280;37669;50.312;18.670;2022-10-26T16:27:44;49327.88;;;-145.86;85.15
51585;BME280;37669;50.312;18.670;2022-10-26T16:30:13;49357.56;;;-145.86;85.62
51585;BME280;37669;50.312;18.670;2022-10-26T16:32:41;49351.63;;;-145.86;86.23
51585;BME280;37669;50.312;18.670;2022-10-26T16:35:09;49349.66;;;-145.86;86.25
51585;BME280;37669;50.312;18.670;2022-10-26T16:37:37;49363.50;;;-145.86;86.57
51585;BME280;37669;50.312;18.670;2022-10-26T16:40:06;49349.66;;;-145.86;87.09
51585;BME280;37669;50.312;18.670;2022-10-26T16:42:34;49371.44;;;-145.86;88.03
51585;BME280;37669;50.312;18.670;2022-10-26T16:45:01;49317.97;;;-145.86;88.99
51585;BME280;37669;50.312;18.670;2022-10-26T16:47:32;49361.53;;;-145.86;88.04
51585;BME280;37669;50.312;18.670;2022-10-26T16:50:03;49345.69;;;-145.86;87.96
51585;BME280;37669;50.312;18.670;2022-10-26T16:52:32;49345.69;;;-145.86;88.62
51585;BME280;37669;50.312;18.670;2022-10-26T16:54:59;49331.81;;;-145.86;88.65
51585;BME280;37669;50.312;18.670;2022-10-26T16:57:27;49349.66;;;-145.86;89.12
51585;BME280;37669;50.312;18.670;2022-10-26T16:59:54;49337.78;;;-145.86;89.54
51585;BME280;37669;50.312;18.670;2022-10-26T17:02:22;49341.72;;;-145.86;90.48
51585;BME280;37669;50.312;18.670;2022-10-26T17:04:50;49337.78;;;-145.86;90.75
51585;BME280;37669;50.312;18.670;2022-10-26T17:07:17;49351.63;;;-145.86;91.19
51585;BME280;37669;50.312;18.670;2022-10-26T17:09:44;49341.72;;;-145.86;91.33
51585;BME280;37669;50.312;18.670;2022-10-26T17:44:07;49343.72;;;-145.86;92.40
51585;BME280;37669;50.312;18.670;2022-10-26T17:46:34;49314.00;;;-145.86;92.42
51585;BME280;37669;50.312;18.670;2022-10-26T17:49:01;49314.00;;;-145.86;92.49
51585;BME280;37669;50.312;18.670;2022-10-26T17:51:29;49278.38;;;-145.86;91.59
51585;BME280;37669;50.312;18.670;2022-10-26T17:53:56;49333.81;;;-145.86;91.18
51585;BME280;37669;50.312;18.670;2022-10-26T17:56:25;49286.28;;;-145.86;91.60
51585;BME280;37669;50.312;18.670;2022-10-26T17:58:53;49314.00;;;-145.86;92.54
51585;BME280;37669;50.312;18.670;2022-10-26T18:01:22;49314.00;;;-145.86;92.77
51585;BME280;37669;50.312;18.670;2022-10-26T18:03:49;49314.00;;;-145.86;93.26
51585;BME280;37669;50.312;18.670;2022-10-26T18:06:17;49298.16;;;-145.86;93.66
51585;BME280;37669;50.312;18.670;2022-10-26T18:08:45;49339.75;;;-145.86;93.28
51585;BME280;37669;50.312;18.670;2022-10-26T18:11:13;49312.03;;;-145.86;93.27
51585;BME280;37669;50.312;18.670;2022-10-26T18:13:42;49302.13;;;-145.86;93.27
51585;BME280;37669;50.312;18.670;2022-10-26T18:16:11;49304.09;;;-145.86;92.60
51585;BME280;37669;50.312;18.670;2022-10-26T18:18:41;49286.28;;;-145.86;93.16
51585;BME280;37669;50.312;18.670;2022-10-26T18:21:11;49272.41;;;-145.86;93.30
51585;BME280;37669;50.312;18.670;2022-10-26T18:23:39;49317.97;;;-145.86;93.91
51585;BME280;37669;50.312;18.670;2022-10-26T18:26:07;49278.38;;;-145.86;94.05
51585;BME280;37669;50.312;18.670;2022-10-26T18:28:35;49264.50;;;-145.86;93.87
51585;BME280;37669;50.312;18.670;2022-10-26T18:31:03;49282.31;;;-145.86;94.07
51585;BME280;37669;50.312;18.670;2022-10-26T18:33:31;49337.78;;;-145.86;94.00
51585;BME280;37669;50.312;18.670;2022-10-26T18:36:04;49280.34;;;-145.86;93.96
51585;BME280;37669;50.312;18.670;2022-10-26T18:38:32;49282.31;;;-145.86;94.00
51585;BME280;37669;50.312;18.670;2022-10-26T18:41:00;49282.31;;;-145.86;94.25
51585;BME280;37669;50.312;18.670;2022-10-26T18:43:27;49294.19;;;-145.86;94.20
51585;BME280;37669;50.312;18.670;2022-10-26T18:46:02;49286.28;;;-145.86;95.07
51585;BME280;37669;50.312;18.670;2022-10-26T18:48:29;49274.41;;;-145.86;95.24
51585;BME280;37669;50.312;18.670;2022-10-26T18:51:00;49333.81;;;-145.86;95.80
51585;BME280;37669;50.312;18.670;2022-10-26T18:53:31;49321.94;;;-145.86;95.99
51585;BME280;37669;50.312;18.670;2022-10-26T18:55:59;49274.41;;;-145.86;95.32
51585;BME280;37669;50.312;18.670;2022-10-26T18:58:29;49266.47;;;-145.86;95.69
51585;BME280;37669;50.312;18.670;2022-10-26T19:01:05;49298.16;;;-145.86;95.31
51585;BME280;37669;50.312;18.670;2022-10-26T19:03:32;49284.31;;;-145.86;94.90
51585;BME280;37669;50.312;18.670;2022-10-26T19:06:07;49286.28;;;-145.86;95.21
51585;BME280;37669;50.312;18.670;2022-10-26T19:08:35;49288.25;;;-145.86;95.15
51585;BME280;37669;50.312;18.670;2022-10-26T19:11:03;49323.91;;;-145.86;95.39
51585;BME280;37669;50.312;18.670;2022-10-26T19:13:31;49270.44;;;-145.86;95.69
51585;BME280;37669;50.312;18.670;2022-10-26T19:15:59;49276.38;;;-145.86;95.79
51585;BME280;37669;50.312;18.670;2022-10-26T19:18:26;49274.41;;;-145.86;95.48
51585;BME280;37669;50.312;18.670;2022-10-26T19:20:57;49296.19;;;-145.86;95.53
51585;BME280;37669;50.312;18.670;2022-10-26T19:23:24;49244.69;;;-145.86;95.32
51585;BME280;37669;50.312;18.670;2022-10-26T19:25:56;49262.53;;;-145.86;95.01
51585;BME280;37669;50.312;18.670;2022-10-26T19:28:23;49282.31;;;-145.86;95.21
51585;BME280;37669;50.312;18.670;2022-10-26T19:30:50;49272.41;;;-145.86;95.07
51585;BME280;37669;50.312;18.670;2022-10-26T19:33:17;49284.31;;;-145.86;94.77
51585;BME280;37669;50.312;18.670;2022-10-26T19:35:44;49282.31;;;-145.86;95.19
51585;BME280;37669;50.312;18.670;2022-10-26T19:38:11;49296.19;;;-145.86;95.08